Terminal Aerodrome Forecast
Issued by NWS Sioux Falls, SD

Home | Current Version | Previous Version | Graphics & Text | Print | Product List | Glossary Off
Versions: 1 2 3 4 5 6 7 8 9 10 11 12

000
FTUS43 KFSD 201120
TAFHON
TAF
KHON 201120Z 2012/2112 16014KT P6SM SCT250 WS020/20040KT
     FM201300 16015G24KT P6SM SCT250
     FM201800 18021G28KT P6SM BKN200
     FM210000 17018G26KT P6SM FEW050 SCT120
     FM210500 18013G22KT P6SM BKN040 BKN100=

USA.gov is the U.S. government's official web portal to all federal, state and local government web resources and services.